Time;durP1;ratioP1;P1;durP2;ratioP2;P2;SDS_P1;SDS_P2;PMS_P1;PMS_P2;Temp;Humidity;BMP_temperature;BMP_pressure;BME280_temperature;BME280_humidity;BME280_pressure;Samples;Min_cycle;Max_cycle;Signal;HPM_P1;HPM_P2
2023/09/08 06:01:50;;;;;;;;;32.33;28.67;;;;;;;;6278410;22;46673;-85
2023/09/08 06:04:15;;;;;;;;;33.33;30.00;;;;;;;;6305817;22;45285;-82
2023/09/08 06:06:40;;;;;;;;;25.33;25.33;;;;;;;;6306629;22;45244;-81
2023/09/08 06:09:07;;;;;;;;;30.00;28.67;;;;;;;;6308048;22;45337;-82
2023/09/08 06:11:33;;;;;;;;;33.67;29.67;;;;;;;;6303490;22;45327;-81
2023/09/08 06:13:59;;;;;;;;;33.33;29.33;;;;;;;;6307952;22;45307;-82
2023/09/08 06:16:24;;;;;;;;;33.67;30.67;;;;;;;;6309858;22;45396;-81
2023/09/08 06:18:49;;;;;;;;;27.67;26.33;;;;;;;;6309296;22;45210;-80
2023/09/08 06:21:15;;;;;;;;;27.67;27.67;;;;;;;;6308714;22;45349;-81
2023/09/08 06:23:40;;;;;;;;;31.67;26.33;;;;;;;;6309064;22;45159;-82
2023/09/08 06:26:05;;;;;;;;;29.67;27.00;;;;;;;;6308059;22;45421;-82
2023/09/08 06:28:31;;;;;;;;;27.67;26.00;;;;;;;;6307623;22;45389;-82
2023/09/08 06:30:56;;;;;;;;;33.67;30.67;;;;;;;;6307306;22;46098;-83
2023/09/08 06:33:24;;;;;;;;;31.33;27.33;;;;;;;;6279774;22;45252;-84
2023/09/08 06:35:49;;;;;;;;;32.67;30.00;;;;;;;;6279714;22;45374;-84
2023/09/08 06:38:15;;;;;;;;;32.00;28.67;;;;;;;;6306653;22;45455;-82
2023/09/08 06:40:40;;;;;;;;;24.00;24.00;;;;;;;;6307810;22;45338;-83
2023/09/08 06:43:05;;;;;;;;;30.67;25.33;;;;;;;;6279955;22;45379;-83
2023/09/08 06:45:30;;;;;;;;;25.00;23.67;;;;;;;;6308481;22;45421;-83
2023/09/08 06:47:55;;;;;;;;;33.67;26.00;;;;;;;;6308355;22;45318;-81
2023/09/08 06:50:21;;;;;;;;;26.33;25.33;;;;;;;;6279954;22;45215;-82
2023/09/08 06:52:47;;;;;;;;;31.67;28.00;;;;;;;;6279297;22;45275;-83
2023/09/08 06:55:13;;;;;;;;;4.33;3.33;;;;;;;;6307555;22;45244;-81
2023/09/08 06:57:38;;;;;;;;;31.33;29.00;;;;;;;;6306515;22;45440;-89
2023/09/08 07:00:07;;;;;;;;;26.00;24.00;;;;;;;;6310925;22;45202;-83
2023/09/08 07:02:32;;;;;;;;;29.00;28.00;;;;;;;;6312512;22;45493;-82
2023/09/08 07:04:57;;;;;;;;;34.33;29.00;;;;;;;;6313696;22;45350;-83
2023/09/08 07:07:23;;;;;;;;;36.00;31.33;;;;;;;;6314254;22;45567;-82
2023/09/08 07:09:48;;;;;;;;;31.67;27.67;;;;;;;;6284852;22;46429;-84
2023/09/08 07:12:13;;;;;;;;;29.67;28.00;;;;;;;;6309769;22;45256;-84
2023/09/08 07:14:39;;;;;;;;;27.67;26.67;;;;;;;;6308117;22;45316;-83
2023/09/08 07:17:04;;;;;;;;;32.00;29.00;;;;;;;;6278663;22;46695;-78
2023/09/08 07:19:29;;;;;;;;;32.33;28.33;;;;;;;;6278398;22;46947;-83
2023/09/08 07:21:54;;;;;;;;;30.67;26.00;;;;;;;;6279458;22;45403;-82
2023/09/08 07:24:20;;;;;;;;;29.00;25.33;;;;;;;;6308085;22;45152;-82
2023/09/08 07:26:45;;;;;;;;;31.33;26.67;;;;;;;;6307482;22;45351;-83
2023/09/08 07:29:11;;;;;;;;;31.00;28.67;;;;;;;;6279145;22;47893;-82
2023/09/08 07:31:38;;;;;;;;;24.67;23.33;;;;;;;;6278573;22;45288;-82
2023/09/08 07:34:03;;;;;;;;;28.67;24.67;;;;;;;;6308413;22;45216;-83
2023/09/08 07:36:28;;;;;;;;;28.00;27.67;;;;;;;;6279163;22;45717;-82
2023/09/08 07:38:54;;;;;;;;;28.00;27.00;;;;;;;;6280564;22;45235;-83
2023/09/08 07:41:19;;;;;;;;;31.00;26.50;;;;;;;;6306754;22;45825;-83
2023/09/08 07:43:45;;;;;;;;;35.00;30.33;;;;;;;;6308651;22;45522;-82
2023/09/08 07:46:10;;;;;;;;;29.50;23.25;;;;;;;;6307140;22;45886;-82
2023/09/08 07:48:36;;;;;;;;;36.00;29.00;;;;;;;;6281070;22;48209;-82
2023/09/08 07:51:01;;;;;;;;;31.33;28.00;;;;;;;;6311545;22;45232;-83
2023/09/08 07:53:27;;;;;;;;;29.00;27.33;;;;;;;;6311011;22;45499;-82
2023/09/08 07:55:52;;;;;;;;;30.00;27.25;;;;;;;;6312520;22;45349;-82
2023/09/08 07:58:17;;;;;;;;;34.25;31.00;;;;;;;;6312509;22;45285;-83
2023/09/08 08:00:42;;;;;;;;;35.00;26.67;;;;;;;;6281203;22;45282;-82
2023/09/08 08:03:08;;;;;;;;;29.50;24.50;;;;;;;;6309185;22;45298;-83
2023/09/08 08:05:33;;;;;;;;;31.75;28.50;;;;;;;;6307325;22;45339;-82
2023/09/08 08:07:59;;;;;;;;;29.75;26.25;;;;;;;;6307909;22;45267;-83
2023/09/08 08:10:24;;;;;;;;;28.50;26.75;;;;;;;;6278233;22;45704;-83
2023/09/08 08:12:49;;;;;;;;;25.75;23.75;;;;;;;;6279566;22;45460;-83
2023/09/08 08:15:14;;;;;;;;;29.50;27.50;;;;;;;;6278202;22;45747;-82
2023/09/08 08:17:40;;;;;;;;;25.50;24.00;;;;;;;;6306975;22;45253;-83
2023/09/08 08:20:09;;;;;;;;;25.50;24.75;;;;;;;;6306536;22;45317;-83
2023/09/08 08:22:34;;;;;;;;;25.25;23.25;;;;;;;;6280501;22;45299;-79
2023/09/08 08:25:00;;;;;;;;;28.75;25.75;;;;;;;;6307346;22;45456;-80
2023/09/08 08:27:25;;;;;;;;;26.00;23.75;;;;;;;;6280883;22;45310;-85
2023/09/08 08:29:51;;;;;;;;;30.50;27.00;;;;;;;;6307165;22;45310;-86
2023/09/08 08:32:16;;;;;;;;;26.00;22.25;;;;;;;;6281810;22;45165;-84
2023/09/08 08:34:41;;;;;;;;;31.25;25.25;;;;;;;;6311570;22;45364;-86
2023/09/08 08:37:06;;;;;;;;;29.25;24.25;;;;;;;;6310665;22;45934;-87
2023/09/08 08:39:31;;;;;;;;;24.25;24.25;;;;;;;;6281947;22;45232;-85
2023/09/08 08:41:57;;;;;;;;;26.50;25.50;;;;;;;;6310138;22;45567;-85
2023/09/08 08:44:23;;;;;;;;;28.00;26.25;;;;;;;;6311606;22;45330;-87
2023/09/08 08:46:49;;;;;;;;;26.00;21.50;;;;;;;;6311630;22;45390;-89
2023/09/08 08:49:15;;;;;;;;;31.50;25.75;;;;;;;;6310780;22;45295;-87
2023/09/08 08:51:42;;;;;;;;;29.25;21.75;;;;;;;;6282795;22;45221;-85
2023/09/08 08:54:08;;;;;;;;;24.75;22.25;;;;;;;;6308288;22;45287;-85
2023/09/08 08:56:35;;;;;;;;;32.50;27.00;;;;;;;;6308137;22;45478;-85
2023/09/08 08:59:01;;;;;;;;;21.80;19.60;;;;;;;;6306688;22;45314;-84
2023/09/08 09:01:27;;;;;;;;;26.50;21.75;;;;;;;;6306998;22;45405;-84
2023/09/08 09:03:53;;;;;;;;;17.60;16.20;;;;;;;;6279204;22;45333;-84
2023/09/08 09:06:18;;;;;;;;;27.25;25.25;;;;;;;;6309348;22;45590;-87
2023/09/08 09:08:44;;;;;;;;;20.25;19.75;;;;;;;;6307026;22;45325;-85
2023/09/08 09:11:09;;;;;;;;;27.00;24.25;;;;;;;;6307456;22;45292;-85
2023/09/08 09:13:35;;;;;;;;;16.50;14.75;;;;;;;;6307313;22;45501;-83
2023/09/08 09:16:01;;;;;;;;;18.25;17.25;;;;;;;;6306460;22;45315;-86
2023/09/08 09:18:29;;;;;;;;;13.20;13.20;;;;;;;;6308270;22;45305;-85
2023/09/08 09:20:55;;;;;;;;;14.00;14.00;;;;;;;;6306970;22;45279;-85
2023/09/08 09:23:34;;;;;;;;;17.80;15.80;;;;;;;;6307419;22;45267;-86
2023/09/08 09:25:59;;;;;;;;;14.80;12.00;;;;;;;;6305642;22;45349;-86
2023/09/08 09:28:25;;;;;;;;;15.00;13.50;;;;;;;;6307285;22;45318;-86
2023/09/08 09:30:51;;;;;;;;;16.50;15.25;;;;;;;;6278233;22;45307;-84
2023/09/08 09:33:17;;;;;;;;;16.40;15.60;;;;;;;;6308929;22;45291;-86
2023/09/08 09:35:46;;;;;;;;;15.75;14.00;;;;;;;;6306857;22;46086;-84
2023/09/08 09:38:11;;;;;;;;;15.80;12.20;;;;;;;;6307904;22;45200;-79
2023/09/08 09:40:37;;;;;;;;;13.75;11.00;;;;;;;;6280529;22;45476;-76
2023/09/08 09:43:04;;;;;;;;;11.75;11.75;;;;;;;;6308755;22;45426;-76
2023/09/08 09:45:29;;;;;;;;;12.20;11.80;;;;;;;;6280133;22;47344;-77
2023/09/08 09:47:55;;;;;;;;;13.50;13.50;;;;;;;;6308228;22;45336;-75
2023/09/08 09:50:40;;;;;;;;;16.25;14.25;;;;;;;;6309789;22;45287;-81
2023/09/08 09:53:09;;;;;;;;;34.60;30.20;;;;;;;;6307258;22;45294;-81
2023/09/08 09:55:35;;;;;;;;;22.60;19.80;;;;;;;;6306618;22;45214;-84
2023/09/08 09:58:03;;;;;;;;;14.20;13.00;;;;;;;;6307864;22;45149;-83
2023/09/08 10:00:29;;;;;;;;;13.20;12.00;;;;;;;;6308289;22;45235;-85
2023/09/08 10:02:55;;;;;;;;;13.00;13.00;;;;;;;;6307736;22;45385;-80
2023/09/08 10:05:20;;;;;;;;;13.50;10.50;;;;;;;;6307681;22;45271;-82
2023/09/08 10:07:49;;;;;;;;;12.00;10.75;;;;;;;;6309241;22;45271;-82
2023/09/08 10:10:15;;;;;;;;;15.80;14.20;;;;;;;;6279765;22;45270;-82
2023/09/08 10:12:42;;;;;;;;;12.20;11.20;;;;;;;;6309315;22;45405;-82
2023/09/08 10:15:10;;;;;;;;;14.60;14.60;;;;;;;;6308827;22;45626;-82
2023/09/08 10:17:36;;;;;;;;;13.00;13.00;;;;;;;;6309491;22;45259;-83
2023/09/08 10:20:08;;;;;;;;;19.00;13.00;;;;;;;;6280823;22;45248;-82
2023/09/08 10:22:35;;;;;;;;;14.60;14.60;;;;;;;;6309749;22;45738;-82
2023/09/08 10:25:03;;;;;;;;;16.00;14.60;;;;;;;;6281444;22;45378;-82
2023/09/08 10:27:29;;;;;;;;;13.00;13.00;;;;;;;;6309686;22;45224;-82
2023/09/08 10:29:55;;;;;;;;;13.00;12.25;;;;;;;;6280828;22;45252;-82
2023/09/08 10:32:20;;;;;;;;;14.00;12.00;;;;;;;;6309405;22;45405;-80
2023/09/08 10:34:46;;;;;;;;;14.50;12.25;;;;;;;;6308672;22;45254;-78
2023/09/08 10:37:21;;;;;;;;;14.25;12.00;;;;;;;;6307060;22;45240;-78
2023/09/08 10:39:46;;;;;;;;;11.80;11.80;;;;;;;;6309192;22;45216;-80
2023/09/08 10:42:21;;;;;;;;;14.00;12.50;;;;;;;;6309297;22;45269;-87
2023/09/08 10:44:49;;;;;;;;;14.00;11.40;;;;;;;;6309262;22;45608;-84
2023/09/08 10:47:18;;;;;;;;;12.00;12.00;;;;;;;;6309363;22;45382;-84
2023/09/08 10:49:43;;;;;;;;;14.40;12.60;;;;;;;;6309432;22;45367;-91
2023/09/08 10:52:09;;;;;;;;;10.75;10.75;;;;;;;;6308776;22;45226;-85
2023/09/08 10:54:53;;;;;;;;;11.00;11.00;;;;;;;;6283596;22;45395;-85
2023/09/08 10:57:22;;;;;;;;;12.40;11.60;;;;;;;;6312509;22;45219;-88
2023/09/08 11:00:05;;;;;;;;;14.40;13.40;;;;;;;;6307914;22;45338;-89
2023/09/08 11:02:35;;;;;;;;;13.20;11.80;;;;;;;;6309069;22;45252;-87
2023/09/08 11:05:00;;;;;;;;;12.40;12.40;;;;;;;;6312825;22;45331;-88
2023/09/08 11:07:26;;;;;;;;;12.00;12.00;;;;;;;;6313817;22;45307;-87
2023/09/08 11:09:51;;;;;;;;;12.75;11.00;;;;;;;;6311052;22;45842;-86
2023/09/08 11:12:17;;;;;;;;;13.00;12.50;;;;;;;;6310774;22;45348;-83
2023/09/08 11:14:44;;;;;;;;;13.75;12.00;;;;;;;;6310295;22;45259;-83
2023/09/08 11:17:09;;;;;;;;;15.80;12.00;;;;;;;;6280376;22;45252;-82
2023/09/08 11:19:47;;;;;;;;;14.25;13.25;;;;;;;;6306242;22;45247;-83
2023/09/08 11:22:13;;;;;;;;;13.60;12.60;;;;;;;;6278306;22;45524;-82
2023/09/08 11:24:39;;;;;;;;;20.50;13.25;;;;;;;;6307612;22;46353;-85
2023/09/08 11:27:04;;;;;;;;;12.40;11.40;;;;;;;;6278781;22;45414;-83
2023/09/08 11:29:29;;;;;;;;;9.75;9.75;;;;;;;;6308980;22;45259;-83
2023/09/08 11:31:55;;;;;;;;;11.75;11.50;;;;;;;;6307375;22;45396;-83
2023/09/08 11:34:21;;;;;;;;;13.50;13.50;;;;;;;;6308823;22;46132;-82
2023/09/08 11:36:46;;;;;;;;;14.60;14.00;;;;;;;;6308521;22;45207;-81
2023/09/08 11:39:11;;;;;;;;;12.00;12.00;;;;;;;;6309438;22;45355;-83
2023/09/08 11:41:36;;;;;;;;;11.75;9.75;;;;;;;;6308419;22;45259;-83
2023/09/08 11:44:01;;;;;;;;;11.00;9.25;;;;;;;;6309255;22;45423;-84
2023/09/08 11:46:30;;;;;;;;;7.75;7.75;;;;;;;;6309450;22;45196;-81
2023/09/08 11:48:55;;;;;;;;;9.40;8.00;;;;;;;;6308998;22;45239;-82
2023/09/08 11:51:25;;;;;;;;;12.50;10.25;;;;;;;;6309579;22;45228;-83
2023/09/08 11:53:51;;;;;;;;;22.20;19.80;;;;;;;;6309394;22;45420;-82
2023/09/08 11:56:16;;;;;;;;;11.25;9.25;;;;;;;;6309041;22;45180;-83
2023/09/08 11:58:42;;;;;;;;;11.00;11.00;;;;;;;;6281131;22;45515;-81
2023/09/08 12:01:07;;;;;;;;;9.50;9.50;;;;;;;;6308628;22;45236;-81
2023/09/08 12:03:33;;;;;;;;;13.00;10.75;;;;;;;;6308841;22;46032;-81
2023/09/08 12:05:59;;;;;;;;;10.75;10.75;;;;;;;;6308892;22;45181;-82
2023/09/08 12:08:26;;;;;;;;;10.80;9.60;;;;;;;;6309288;22;45274;-83
2023/09/08 12:10:53;;;;;;;;;10.40;9.00;;;;;;;;6308487;22;45917;-81
2023/09/08 12:13:22;;;;;;;;;10.80;10.00;;;;;;;;6308988;22;45366;-80
2023/09/08 12:15:47;;;;;;;;;11.20;8.20;;;;;;;;6279669;22;45280;-80
2023/09/08 12:18:15;;;;;;;;;10.50;10.50;;;;;;;;6309282;22;45251;-81
2023/09/08 12:20:41;;;;;;;;;10.60;8.20;;;;;;;;6309239;22;45227;-80
2023/09/08 12:23:14;;;;;;;;;9.00;8.25;;;;;;;;6309708;22;45978;-79
2023/09/08 12:25:52;;;;;;;;;7.80;7.80;;;;;;;;6309492;22;45199;-83
2023/09/08 12:28:19;;;;;;;;;11.00;9.80;;;;;;;;6280488;22;45238;-80
2023/09/08 12:30:44;;;;;;;;;10.00;9.00;;;;;;;;6308733;22;45235;-79
2023/09/08 12:33:14;;;;;;;;;8.50;8.25;;;;;;;;6308842;22;46264;-80
2023/09/08 12:35:42;;;;;;;;;9.80;9.60;;;;;;;;6280058;22;45146;-81
2023/09/08 12:38:07;;;;;;;;;9.20;9.20;;;;;;;;6309132;22;45159;-82
2023/09/08 12:40:36;;;;;;;;;9.75;9.25;;;;;;;;6308738;22;45386;-81
2023/09/08 12:43:02;;;;;;;;;11.60;10.40;;;;;;;;6309948;22;46258;-82
2023/09/08 12:45:27;;;;;;;;;10.75;10.75;;;;;;;;6279886;22;45722;-83
2023/09/08 12:47:54;;;;;;;;;18.75;15.75;;;;;;;;6309568;22;45104;-79
2023/09/08 12:50:20;;;;;;;;;9.20;9.20;;;;;;;;6280337;22;45248;-81
2023/09/08 12:52:45;;;;;;;;;9.50;8.50;;;;;;;;6309266;22;46288;-78
2023/09/08 12:55:10;;;;;;;;;9.25;8.00;;;;;;;;6308936;22;45193;-82
2023/09/08 12:57:36;;;;;;;;;10.50;9.50;;;;;;;;6309578;22;45172;-82
2023/09/08 13:00:02;;;;;;;;;8.75;8.00;;;;;;;;6308573;22;45222;-78
2023/09/08 13:02:27;;;;;;;;;10.00;10.00;;;;;;;;6308238;22;46127;-78
2023/09/08 13:04:54;;;;;;;;;9.50;9.00;;;;;;;;6308579;22;45198;-77
2023/09/08 13:07:19;;;;;;;;;12.00;11.00;;;;;;;;6281113;22;45410;-78
2023/09/08 13:09:45;;;;;;;;;8.50;8.00;;;;;;;;6308748;22;45229;-78
2023/09/08 13:12:11;;;;;;;;;8.00;8.00;;;;;;;;6309057;22;46079;-85
2023/09/08 13:14:36;;;;;;;;;7.60;7.60;;;;;;;;6281954;22;45212;-81
2023/09/08 13:17:02;;;;;;;;;9.25;8.00;;;;;;;;6281365;22;45420;-79
2023/09/08 13:19:27;;;;;;;;;9.50;9.50;;;;;;;;6309594;22;45279;-82
2023/09/08 13:21:52;;;;;;;;;7.50;6.00;;;;;;;;6311451;22;45480;-82
2023/09/08 13:24:19;;;;;;;;;5.75;5.75;;;;;;;;6310348;22;45384;-81
2023/09/08 13:26:44;;;;;;;;;8.60;8.00;;;;;;;;6310075;22;45199;-80
2023/09/08 13:29:09;;;;;;;;;9.25;9.25;;;;;;;;6308572;22;45275;-82
2023/09/08 13:31:34;;;;;;;;;11.75;8.00;;;;;;;;6308028;22;45369;-82
2023/09/08 13:33:59;;;;;;;;;8.75;8.50;;;;;;;;6308520;22;45149;-80
2023/09/08 13:36:24;;;;;;;;;7.50;7.50;;;;;;;;6308706;22;45233;-81
2023/09/08 13:38:50;;;;;;;;;10.00;10.00;;;;;;;;6308475;22;45346;-81
2023/09/08 13:41:15;;;;;;;;;9.75;9.00;;;;;;;;6279646;22;47267;-81
2023/09/08 13:43:40;;;;;;;;;9.25;8.00;;;;;;;;6308675;22;45316;-81
2023/09/08 13:46:05;;;;;;;;;10.00;8.00;;;;;;;;6307939;22;45228;-80
2023/09/08 13:48:30;;;;;;;;;10.75;8.50;;;;;;;;6308741;22;45136;-81
2023/09/08 13:51:00;;;;;;;;;8.00;8.00;;;;;;;;6308190;22;45300;-78
2023/09/08 13:53:25;;;;;;;;;8.00;8.00;;;;;;;;6308389;22;45235;-79
2023/09/08 13:55:51;;;;;;;;;11.00;10.50;;;;;;;;6308516;22;45200;-82
2023/09/08 13:58:16;;;;;;;;;8.25;7.00;;;;;;;;6308205;22;45193;-82
2023/09/08 14:00:41;;;;;;;;;11.25;9.00;;;;;;;;6307830;22;45263;-83
2023/09/08 14:03:06;;;;;;;;;10.00;7.50;;;;;;;;6308939;22;45336;-84
2023/09/08 14:05:32;;;;;;;;;11.25;9.50;;;;;;;;6308480;22;45264;-80
2023/09/08 14:07:57;;;;;;;;;8.00;8.00;;;;;;;;6309531;22;45216;-79
2023/09/08 14:10:22;;;;;;;;;8.50;8.25;;;;;;;;6309018;22;45220;-79
2023/09/08 14:12:48;;;;;;;;;9.00;9.00;;;;;;;;6308195;22;45070;-79
2023/09/08 14:15:15;;;;;;;;;10.25;8.00;;;;;;;;6309156;22;45300;-79
2023/09/08 14:17:40;;;;;;;;;9.40;9.00;;;;;;;;6307498;22;45220;-78
2023/09/08 14:20:06;;;;;;;;;7.75;7.75;;;;;;;;6308166;22;45321;-78
2023/09/08 14:22:31;;;;;;;;;10.50;9.25;;;;;;;;6307413;22;45184;-79
2023/09/08 14:24:57;;;;;;;;;9.00;7.75;;;;;;;;6307697;22;45264;-79
2023/09/08 14:27:22;;;;;;;;;7.25;7.25;;;;;;;;6308676;22;45149;-79
2023/09/08 14:29:47;;;;;;;;;8.50;7.00;;;;;;;;6308700;22;45991;-78
2023/09/08 14:32:12;;;;;;;;;8.75;8.75;;;;;;;;6309769;22;45290;-79
2023/09/08 14:34:37;;;;;;;;;8.50;8.50;;;;;;;;6309921;22;45219;-79
2023/09/08 14:37:03;;;;;;;;;10.00;9.00;;;;;;;;6309346;22;45329;-78
2023/09/08 14:39:28;;;;;;;;;6.50;6.00;;;;;;;;6281425;22;46185;-78
2023/09/08 14:41:54;;;;;;;;;10.00;8.75;;;;;;;;6309327;22;45282;-79
2023/09/08 14:44:21;;;;;;;;;9.00;8.80;;;;;;;;6281548;22;45221;-79
2023/09/08 14:46:46;;;;;;;;;13.60;9.80;;;;;;;;6308699;22;45335;-79
2023/09/08 14:49:14;;;;;;;;;11.75;8.25;;;;;;;;6281551;22;47817;-79
2023/09/08 14:51:39;;;;;;;;;9.40;9.40;;;;;;;;6281188;22;45189;-79
2023/09/08 14:54:05;;;;;;;;;10.25;9.25;;;;;;;;6281004;22;45211;-78
2023/09/08 14:56:30;;;;;;;;;10.75;9.50;;;;;;;;6309105;22;45153;-78
2023/09/08 14:58:55;;;;;;;;;6.75;6.75;;;;;;;;6309426;22;46104;-78
2023/09/08 15:01:20;;;;;;;;;8.50;8.25;;;;;;;;6308483;22;45313;-78
2023/09/08 15:03:45;;;;;;;;;8.00;8.00;;;;;;;;6309896;22;45559;-79
2023/09/08 15:06:12;;;;;;;;;10.50;10.00;;;;;;;;6308927;22;45396;-78
2023/09/08 15:08:37;;;;;;;;;9.00;9.00;;;;;;;;6309594;22;45999;-79
2023/09/08 15:11:03;;;;;;;;;12.00;10.50;;;;;;;;6309482;22;45152;-78
2023/09/08 15:13:30;;;;;;;;;8.40;8.00;;;;;;;;6309864;22;45429;-77
2023/09/08 15:15:57;;;;;;;;;8.50;7.50;;;;;;;;6308769;22;45511;-77
2023/09/08 15:18:22;;;;;;;;;13.00;10.00;;;;;;;;6309319;22;45278;-77
2023/09/08 15:20:54;;;;;;;;;7.00;7.00;;;;;;;;6309083;22;45390;-77
2023/09/08 15:23:19;;;;;;;;;7.60;7.60;;;;;;;;6309704;22;45288;-78
2023/09/08 15:25:51;;;;;;;;;11.75;9.75;;;;;;;;6308207;22;45382;-86
2023/09/08 15:28:16;;;;;;;;;10.40;10.40;;;;;;;;6279237;22;46281;-86
2023/09/08 15:30:46;;;;;;;;;10.00;10.00;;;;;;;;6273331;22;45348;-85
2023/09/08 15:33:11;;;;;;;;;9.20;9.20;;;;;;;;6307520;22;45256;-86
2023/09/08 15:35:37;;;;;;;;;13.00;10.75;;;;;;;;6306641;22;45265;-85
2023/09/08 15:38:02;;;;;;;;;7.75;7.75;;;;;;;;6307415;22;45729;-86
2023/09/08 15:40:27;;;;;;;;;11.00;10.00;;;;;;;;6306821;22;45558;-86
2023/09/08 15:42:53;;;;;;;;;10.50;10.50;;;;;;;;6308040;22;45354;-86
2023/09/08 15:45:19;;;;;;;;;8.80;8.20;;;;;;;;6308600;22;45218;-86
2023/09/08 15:47:44;;;;;;;;;13.75;12.25;;;;;;;;6307838;22;46398;-86
2023/09/08 15:50:10;;;;;;;;;11.00;10.00;;;;;;;;6309695;22;45603;-86
2023/09/08 15:52:35;;;;;;;;;9.40;9.40;;;;;;;;6308574;22;45578;-85
2023/09/08 15:55:01;;;;;;;;;10.00;9.50;;;;;;;;6310455;22;45530;-86
2023/09/08 15:57:26;;;;;;;;;10.00;9.00;;;;;;;;6281012;22;45866;-86
2023/09/08 15:59:51;;;;;;;;;13.75;9.50;;;;;;;;6283417;22;45236;-85
2023/09/08 16:02:17;;;;;;;;;10.75;10.00;;;;;;;;6280255;22;45253;-85
2023/09/08 16:04:42;;;;;;;;;12.00;10.75;;;;;;;;6280757;22;45802;-85
2023/09/08 16:07:07;;;;;;;;;9.75;9.75;;;;;;;;6307574;22;45338;-85
2023/09/08 16:09:32;;;;;;;;;8.25;8.25;;;;;;;;6307977;22;45282;-85
2023/09/08 16:11:57;;;;;;;;;7.75;7.75;;;;;;;;6308141;22;45240;-86
2023/09/08 16:14:23;;;;;;;;;10.25;9.00;;;;;;;;6309288;22;45155;-86
2023/09/08 16:16:48;;;;;;;;;9.00;9.00;;;;;;;;6308403;22;45318;-84
2023/09/08 16:19:13;;;;;;;;;10.50;8.50;;;;;;;;6309348;22;45366;-83
2023/09/08 16:21:39;;;;;;;;;8.25;8.00;;;;;;;;6308036;22;45651;-84
2023/09/08 16:24:04;;;;;;;;;10.00;8.50;;;;;;;;6279005;22;45283;-84
2023/09/08 16:26:29;;;;;;;;;8.75;7.25;;;;;;;;6308441;22;45311;-84
2023/09/08 16:28:54;;;;;;;;;9.25;8.75;;;;;;;;6307191;22;45262;-83
2023/09/08 16:31:19;;;;;;;;;9.75;8.25;;;;;;;;6308452;22;45421;-83
2023/09/08 16:33:45;;;;;;;;;8.75;8.25;;;;;;;;6308350;22;45403;-84
2023/09/08 16:36:10;;;;;;;;;9.00;8.25;;;;;;;;6280251;22;47607;-84
2023/09/08 16:38:35;;;;;;;;;9.00;9.00;;;;;;;;6308577;22;45229;-85
2023/09/08 16:41:00;;;;;;;;;8.25;8.25;;;;;;;;6309367;22;45271;-85
2023/09/08 16:43:26;;;;;;;;;8.25;8.25;;;;;;;;6308741;22;45248;-84
2023/09/08 16:45:51;;;;;;;;;9.75;9.00;;;;;;;;6281841;22;46954;-84
2023/09/08 16:48:16;;;;;;;;;9.25;8.25;;;;;;;;6311740;22;45279;-82
2023/09/08 16:50:42;;;;;;;;;11.25;10.25;;;;;;;;6310067;22;45469;-83
2023/09/08 16:53:08;;;;;;;;;9.25;9.25;;;;;;;;6309620;22;45265;-82
2023/09/08 16:55:33;;;;;;;;;10.20;10.20;;;;;;;;6308989;22;45316;-83
2023/09/08 16:57:58;;;;;;;;;10.50;10.50;;;;;;;;6308975;22;45282;-83
2023/09/08 17:00:23;;;;;;;;;9.75;8.00;;;;;;;;6308391;22;45256;-82
2023/09/08 17:02:49;;;;;;;;;9.25;8.75;;;;;;;;6313092;22;45144;-82
2023/09/08 17:05:17;;;;;;;;;9.50;9.50;;;;;;;;6309824;22;45902;-82
2023/09/08 17:07:43;;;;;;;;;8.00;8.00;;;;;;;;6308734;22;45218;-85
2023/09/08 17:10:08;;;;;;;;;8.20;8.20;;;;;;;;6308458;22;44581;-84
2023/09/08 17:12:34;;;;;;;;;12.50;11.75;;;;;;;;6308382;22;45262;-85
2023/09/08 17:15:00;;;;;;;;;8.25;7.50;;;;;;;;6281622;22;46008;-86
2023/09/08 17:17:25;;;;;;;;;10.25;9.00;;;;;;;;6280961;22;45696;-81
2023/09/08 17:19:50;;;;;;;;;11.25;9.50;;;;;;;;6281093;22;45348;-85
2023/09/08 17:22:16;;;;;;;;;11.75;9.25;;;;;;;;6308863;22;45226;-86
2023/09/08 17:24:41;;;;;;;;;9.25;9.25;;;;;;;;6309132;22;45219;-85
2023/09/08 17:27:06;;;;;;;;;11.50;11.50;;;;;;;;6308666;22;45457;-82
2023/09/08 17:29:31;;;;;;;;;10.00;10.00;;;;;;;;6308658;22;45270;-82
2023/09/08 17:31:57;;;;;;;;;11.25;11.25;;;;;;;;6279978;22;45446;-84
2023/09/08 17:34:22;;;;;;;;;11.50;11.50;;;;;;;;6307133;22;46368;-84
2023/09/08 17:36:51;;;;;;;;;11.00;11.00;;;;;;;;6308591;22;45640;-82
2023/09/08 17:39:16;;;;;;;;;12.40;11.00;;;;;;;;6312223;22;45238;-85
2023/09/08 17:41:41;;;;;;;;;10.25;8.75;;;;;;;;6282215;22;46906;-84
2023/09/08 17:44:07;;;;;;;;;12.75;11.75;;;;;;;;6311829;22;45304;-84
2023/09/08 17:46:33;;;;;;;;;11.25;10.75;;;;;;;;6309858;22;45249;-82
2023/09/08 17:48:58;;;;;;;;;10.00;10.00;;;;;;;;6309795;22;45296;-86
2023/09/08 17:51:23;;;;;;;;;13.00;10.50;;;;;;;;6308239;22;45283;-83
2023/09/08 17:53:48;;;;;;;;;16.00;12.00;;;;;;;;6308902;22;46331;-84
2023/09/08 17:56:14;;;;;;;;;9.50;9.50;;;;;;;;6308140;22;45354;-82
2023/09/08 17:58:39;;;;;;;;;14.25;12.75;;;;;;;;6308942;22;45246;-83
2023/09/08 18:01:04;;;;;;;;;11.25;11.25;;;;;;;;6306889;22;45398;-82
2023/09/08 18:03:29;;;;;;;;;14.25;11.75;;;;;;;;6308568;22;45337;-86
2023/09/08 18:05:54;;;;;;;;;13.00;12.50;;;;;;;;6309712;22;45216;-84
2023/09/08 18:08:19;;;;;;;;;12.00;12.00;;;;;;;;6310041;22;45232;-86
2023/09/08 18:10:46;;;;;;;;;11.25;11.25;;;;;;;;6281086;22;46586;-84
2023/09/08 18:13:11;;;;;;;;;11.60;11.60;;;;;;;;6308950;22;46363;-86
2023/09/08 18:15:36;;;;;;;;;17.25;13.00;;;;;;;;6309691;22;45275;-86
2023/09/08 18:18:02;;;;;;;;;15.00;11.50;;;;;;;;6310371;22;45149;-86
2023/09/08 18:20:27;;;;;;;;;24.75;18.00;;;;;;;;6311911;22;45172;-86
2023/09/08 18:22:54;;;;;;;;;15.50;14.50;;;;;;;;6311431;22;45911;-87
2023/09/08 18:25:19;;;;;;;;;17.60;16.00;;;;;;;;6311516;22;45242;-87
2023/09/08 18:27:47;;;;;;;;;14.00;13.00;;;;;;;;6311486;22;45141;-87
2023/09/08 18:30:12;;;;;;;;;17.80;16.00;;;;;;;;6312101;22;45110;-86
2023/09/08 18:32:37;;;;;;;;;15.00;14.50;;;;;;;;6312800;22;45339;-83
2023/09/08 18:35:02;;;;;;;;;17.00;17.00;;;;;;;;6312547;22;45233;-84
2023/09/08 18:37:28;;;;;;;;;17.00;15.75;;;;;;;;6283715;22;45188;-83
2023/09/08 18:39:53;;;;;;;;;13.75;13.50;;;;;;;;6311629;22;45318;-82
2023/09/08 18:42:18;;;;;;;;;16.50;15.50;;;;;;;;6310032;22;45242;-82
2023/09/08 18:44:43;;;;;;;;;16.50;14.00;;;;;;;;6310495;22;45157;-85
2023/09/08 18:47:09;;;;;;;;;16.25;13.25;;;;;;;;6310383;22;45472;-86
2023/09/08 18:49:35;;;;;;;;;15.40;12.40;;;;;;;;6310353;22;45514;-85
2023/09/08 18:52:00;;;;;;;;;18.25;16.00;;;;;;;;6281222;22;46775;-85
2023/09/08 18:54:29;;;;;;;;;19.75;18.00;;;;;;;;6281746;22;45315;-86
2023/09/08 18:56:54;;;;;;;;;20.25;17.25;;;;;;;;6309566;22;45206;-83
2023/09/08 18:59:19;;;;;;;;;27.25;24.25;;;;;;;;6309052;22;45379;-82
2023/09/08 19:01:45;;;;;;;;;24.00;20.50;;;;;;;;6308588;22;46664;-84
2023/09/08 19:04:11;;;;;;;;;24.50;21.50;;;;;;;;6309759;22;45247;-84
2023/09/08 19:06:36;;;;;;;;;25.00;22.00;;;;;;;;6309538;22;45258;-84
2023/09/08 19:09:02;;;;;;;;;21.75;20.00;;;;;;;;6309770;22;45198;-83
2023/09/08 19:11:28;;;;;;;;;23.25;22.50;;;;;;;;6280884;22;47259;-85
2023/09/08 19:13:53;;;;;;;;;24.25;19.75;;;;;;;;6308831;22;45243;-85
2023/09/08 19:16:18;;;;;;;;;22.75;21.00;;;;;;;;6308424;22;45527;-86
2023/09/08 19:18:43;;;;;;;;;22.25;20.00;;;;;;;;6310049;22;45306;-85
2023/09/08 19:21:09;;;;;;;;;19.25;16.50;;;;;;;;6310805;22;45249;-85
2023/09/08 19:23:34;;;;;;;;;21.25;20.25;;;;;;;;6283876;22;45484;-84
2023/09/08 19:26:08;;;;;;;;;16.00;16.00;;;;;;;;6311252;22;45274;-84
2023/09/08 19:28:33;;;;;;;;;18.00;18.00;;;;;;;;6310256;22;45098;-83
2023/09/08 19:30:59;;;;;;;;;20.25;19.25;;;;;;;;6313086;22;45587;-85
2023/09/08 19:33:24;;;;;;;;;17.50;16.00;;;;;;;;6312364;22;45288;-86
2023/09/08 19:35:49;;;;;;;;;18.00;17.75;;;;;;;;6309076;22;45287;-86
2023/09/08 19:38:15;;;;;;;;;18.50;18.50;;;;;;;;6309362;22;45230;-88
2023/09/08 19:40:40;;;;;;;;;24.50;24.00;;;;;;;;6309101;22;45256;-84
2023/09/08 19:43:05;;;;;;;;;24.00;22.75;;;;;;;;6280650;22;45458;-86
2023/09/08 19:45:31;;;;;;;;;22.50;20.25;;;;;;;;6308807;22;45219;-85
2023/09/08 19:47:56;;;;;;;;;26.00;26.00;;;;;;;;6280661;22;45680;-84
2023/09/08 19:50:21;;;;;;;;;30.00;26.50;;;;;;;;6281208;22;47331;-85
2023/09/08 19:52:47;;;;;;;;;23.50;20.75;;;;;;;;6281137;22;45363;-85
2023/09/08 19:55:12;;;;;;;;;21.50;20.75;;;;;;;;6280806;22;45322;-88
2023/09/08 19:57:37;;;;;;;;;17.75;17.75;;;;;;;;6280882;22;46058;-87
2023/09/08 20:00:03;;;;;;;;;24.25;23.00;;;;;;;;6309224;22;46108;-86
2023/09/08 20:02:28;;;;;;;;;18.00;15.50;;;;;;;;6309053;22;45251;-86
2023/09/08 20:04:54;;;;;;;;;24.25;24.25;;;;;;;;6281250;22;45233;-87
2023/09/08 20:07:19;;;;;;;;;15.75;15.75;;;;;;;;6309771;22;45232;-84
2023/09/08 20:09:45;;;;;;;;;25.50;22.25;;;;;;;;6309474;22;45266;-81
2023/09/08 20:12:10;;;;;;;;;25.75;23.00;;;;;;;;6310226;22;45206;-81
2023/09/08 20:14:35;;;;;;;;;21.50;21.00;;;;;;;;6282681;22;45428;-82
2023/09/08 20:17:03;;;;;;;;;23.25;22.25;;;;;;;;6282062;22;46037;-83